Time;durP1;ratioP1;P1;durP2;ratioP2;P2;SDS_P1;SDS_P2;PMS_P1;PMS_P2;Temp;Humidity;BMP_temperature;BMP_pressure;BME280_temperature;BME280_humidity;BME280_pressure;Samples;Min_cycle;Max_cycle;Signal;HPM_P1;HPM_P2
2022/04/26 03:36:16;;;;;;;9.50;3.53;;;;;;;9.37;71.67;101821.63;5027662;28;20602;-59
2022/04/26 03:38:43;;;;;;;9.95;3.63;;;;;;;9.52;71.44;101826.69;5027066;28;20105;-60
2022/04/26 03:41:09;;;;;;;5.43;3.42;;;;;;;9.55;71.39;101821.38;5025912;28;20030;-60
2022/04/26 03:43:34;;;;;;;4.85;3.17;;;;;;;9.61;71.59;101820.41;5026726;28;20037;-59
2022/04/26 03:46:00;;;;;;;8.82;4.82;;;;;;;9.68;71.48;101824.69;5027820;28;20022;-59
2022/04/26 03:48:25;;;;;;;9.07;4.05;;;;;;;9.72;71.65;101822.88;5026923;28;20037;-59
2022/04/26 03:50:51;;;;;;;7.20;3.63;;;;;;;9.68;71.58;101826.44;5027268;28;20057;-58
2022/04/26 03:53:16;;;;;;;9.00;4.57;;;;;;;9.58;72.39;101825.72;5025230;28;20115;-58
2022/04/26 03:55:42;;;;;;;5.82;4.60;;;;;;;9.58;72.71;101841.50;5026666;28;20034;-58
2022/04/26 03:58:07;;;;;;;11.48;5.40;;;;;;;9.48;73.40;101830.22;5027674;28;20033;-58
2022/04/26 04:00:32;;;;;;;13.07;5.63;;;;;;;9.59;73.03;101825.72;5026180;28;20108;-63
2022/04/26 04:02:58;;;;;;;9.80;4.88;;;;;;;9.72;72.90;101829.03;5026799;28;20045;-59
2022/04/26 04:05:23;;;;;;;11.57;5.55;;;;;;;9.54;73.94;101819.63;5024450;28;20068;-58
2022/04/26 04:07:48;;;;;;;14.02;5.68;;;;;;;9.46;73.90;101829.41;5027507;28;20025;-60
2022/04/26 04:10:14;;;;;;;9.68;5.40;;;;;;;9.58;73.69;101826.56;5026618;28;20483;-60
2022/04/26 04:12:39;;;;;;;11.50;6.22;;;;;;;9.50;74.00;101830.22;5026758;28;20107;-59
2022/04/26 04:15:05;;;;;;;14.48;6.35;;;;;;;9.45;74.70;101835.56;5026896;28;20122;-59
2022/04/26 04:17:30;;;;;;;10.45;5.70;;;;;;;9.43;74.97;101832.06;5027102;28;20033;-59
2022/04/26 04:19:56;;;;;;;16.55;6.50;;;;;;;9.30;75.33;101837.47;5026710;28;20022;-59
2022/04/26 04:22:21;;;;;;;13.05;5.93;;;;;;;9.34;75.48;101839.16;5026887;28;20095;-59
2022/04/26 04:24:47;;;;;;;12.68;5.88;;;;;;;9.10;75.82;101841.19;5026193;28;20021;-59
2022/04/26 04:27:12;;;;;;;11.38;6.22;;;;;;;9.28;75.31;101847.16;5026420;28;20163;-60
2022/04/26 04:29:37;;;;;;;10.88;6.30;;;;;;;9.32;75.02;101846.22;5026826;28;20025;-60
2022/04/26 04:32:03;;;;;;;10.18;5.32;;;;;;;9.25;75.35;101843.69;5027266;28;20095;-60
2022/04/26 04:34:28;;;;;;;14.02;5.85;;;;;;;9.17;75.67;101854.28;5026472;28;20177;-60
2022/04/26 04:36:54;;;;;;;9.57;5.97;;;;;;;9.17;75.88;101843.75;5026819;28;20076;-60
2022/04/26 04:39:20;;;;;;;11.65;6.43;;;;;;;9.09;76.25;101851.72;5026587;28;20033;-60
2022/04/26 04:41:49;;;;;;;12.95;6.07;;;;;;;9.19;75.65;101860.41;5026019;28;20041;-60
2022/04/26 04:44:16;;;;;;;14.35;6.10;;;;;;;9.03;76.23;101860.56;5025671;28;20029;-61
2022/04/26 04:46:41;;;;;;;13.32;6.20;;;;;;;9.17;75.52;101872.69;5026492;28;20029;-59
2022/04/26 04:49:06;;;;;;;13.20;5.47;;;;;;;9.04;76.08;101872.84;5022517;28;20375;-60
2022/04/26 04:51:32;;;;;;;16.45;5.95;;;;;;;9.04;75.74;101883.38;5008763;28;20451;-60
2022/04/26 04:53:57;;;;;;;16.67;6.50;;;;;;;8.95;75.57;101886.09;5025714;28;20109;-59
2022/04/26 04:56:24;;;;;;;12.20;5.40;;;;;;;9.09;75.39;101881.53;5024168;28;20112;-59
2022/04/26 04:58:51;;;;;;;20.38;6.72;;;;;;;8.99;76.07;101890.41;5025222;28;20029;-59
2022/04/26 05:01:16;;;;;;;11.15;5.35;;;;;;;9.13;75.14;101892.03;5024278;28;20060;-60
2022/04/26 05:03:41;;;;;;;9.95;5.25;;;;;;;9.07;75.18;101895.59;5025014;28;20056;-59
2022/04/26 05:06:07;;;;;;;13.85;5.13;;;;;;;9.16;75.11;101905.16;5024546;28;20041;-59
2022/04/26 05:08:33;;;;;;;13.43;5.43;;;;;;;9.01;75.18;101900.91;5026159;28;20041;-59
2022/04/26 05:10:58;;;;;;;11.68;4.78;;;;;;;9.05;75.15;101897.34;5023823;28;20033;-59
2022/04/26 05:13:24;;;;;;;16.13;5.05;;;;;;;9.04;75.06;101901.78;5026433;28;20029;-60
2022/04/26 05:15:49;;;;;;;21.75;5.72;;;;;;;8.95;76.05;101909.75;5026678;28;20025;-59
2022/04/26 05:18:14;;;;;;;12.95;5.97;;;;;;;9.17;75.06;101912.13;5026063;28;20029;-60
2022/04/26 05:20:40;;;;;;;11.32;5.53;;;;;;;8.98;75.47;101907.09;5028575;28;20128;-60
2022/04/26 05:25:49;;;;;;;12.45;6.10;;;;;;;9.09;75.63;101912.22;5029034;28;20079;-59
2022/04/26 05:28:14;;;;;;;18.02;7.85;;;;;;;9.09;75.67;101920.09;5012797;28;20037;-59
2022/04/26 05:30:39;;;;;;;14.93;6.28;;;;;;;9.21;75.16;101927.00;5029437;28;20091;-61
2022/04/26 05:33:05;;;;;;;14.10;5.53;;;;;;;9.14;75.27;101933.19;5029966;28;20510;-60
2022/04/26 05:35:30;;;;;;;12.38;6.47;;;;;;;9.09;74.75;101927.97;5029109;28;20032;-59
2022/04/26 05:37:55;;;;;;;12.38;5.72;;;;;;;9.22;75.22;101936.63;5020119;28;20121;-61
2022/04/26 05:40:21;;;;;;;13.13;6.38;;;;;;;9.07;75.28;101941.19;5019641;28;20041;-59
2022/04/26 05:42:46;;;;;;;15.85;6.70;;;;;;;9.19;74.92;101934.03;5012004;28;20084;-59
2022/04/26 05:45:12;;;;;;;16.75;7.43;;;;;;;9.08;75.40;101937.66;5008451;28;20033;-59
2022/04/26 05:47:42;;;;;;;18.23;6.22;;;;;;;9.27;74.89;101940.06;5019951;28;20068;-60
2022/04/26 05:50:09;;;;;;;14.73;6.80;;;;;;;9.09;75.05;101942.00;5018986;28;20763;-63
2022/04/26 05:52:35;;;;;;;25.15;7.05;;;;;;;9.07;75.47;101938.56;5018900;28;20095;-63
2022/04/26 05:55:04;;;;;;;17.08;6.53;;;;;;;9.16;74.94;101941.97;5017969;28;20468;-63
2022/04/26 05:57:29;;;;;;;19.17;8.93;;;;;;;9.40;74.46;101947.84;5020032;28;20025;-61
2022/04/26 05:59:55;;;;;;;11.13;5.50;;;;;;;9.51;74.15;101948.59;5018296;28;20122;-63
2022/04/26 06:02:20;;;;;;;14.40;6.60;;;;;;;9.70;73.39;101943.13;5017580;28;20029;-59
2022/04/26 06:04:45;;;;;;;14.95;7.00;;;;;;;9.25;74.69;101947.13;5021944;28;20052;-62
2022/04/26 06:07:11;;;;;;;14.90;7.03;;;;;;;9.41;74.17;101939.06;5023116;28;20100;-62
2022/04/26 06:09:37;;;;;;;16.65;6.07;;;;;;;9.48;74.05;101940.72;5018976;28;20017;-62
2022/04/26 06:12:04;;;;;;;14.85;6.28;;;;;;;9.76;73.27;101948.31;5024913;28;21014;-62
2022/04/26 06:14:29;;;;;;;15.60;6.75;;;;;;;9.78;73.14;101948.28;5028761;28;20026;-62
2022/04/26 06:16:54;;;;;;;14.55;5.75;;;;;;;9.73;72.77;101946.56;5011402;28;20479;-63
2022/04/26 06:19:20;;;;;;;15.18;6.15;;;;;;;9.78;72.77;101948.28;5028748;28;20504;-60
2022/04/26 06:21:45;;;;;;;11.82;6.00;;;;;;;9.77;72.51;101949.16;5028449;28;20372;-60
2022/04/26 06:24:10;;;;;;;14.73;5.80;;;;;;;9.58;73.43;101945.00;5028114;28;20057;-58
2022/04/26 06:26:36;;;;;;;20.98;6.45;;;;;;;9.47;73.72;101952.16;5015364;28;20025;-58
2022/04/26 06:29:01;;;;;;;18.17;6.45;;;;;;;9.51;73.91;101956.47;5029216;28;20033;-56
2022/04/26 06:31:26;;;;;;;15.18;7.32;;;;;;;9.44;73.63;101960.06;5026895;28;20034;-57
2022/04/26 06:33:51;;;;;;;13.02;6.07;;;;;;;9.60;73.52;101959.00;5028080;28;20076;-59
2022/04/26 06:36:17;;;;;;;16.08;6.20;;;;;;;9.72;72.48;101958.00;5028984;28;20033;-63
2022/04/26 06:38:42;;;;;;;14.23;6.13;;;;;;;9.52;73.69;101957.34;5027121;28;20029;-55
2022/04/26 06:41:07;;;;;;;17.27;6.63;;;;;;;9.50;73.36;101962.63;5028344;28;20036;-57
2022/04/26 06:43:33;;;;;;;11.18;5.47;;;;;;;9.59;73.25;101965.16;5024164;28;20033;-56
2022/04/26 06:46:00;;;;;;;12.20;5.65;;;;;;;9.65;73.22;101971.22;5025080;28;20137;-60
2022/04/26 06:48:25;;;;;;;17.15;5.72;;;;;;;9.72;72.75;101976.41;5021831;28;20041;-60
2022/04/26 06:50:51;;;;;;;13.05;6.47;;;;;;;9.65;73.09;101981.75;5018112;28;20022;-60
2022/04/26 06:53:16;;;;;;;16.35;5.65;;;;;;;9.71;72.57;101984.31;5018996;28;20064;-58
2022/04/26 06:55:42;;;;;;;11.27;5.28;;;;;;;9.53;73.43;101975.75;5007053;28;20025;-58
2022/04/26 06:58:07;;;;;;;11.93;5.28;;;;;;;9.82;72.64;101987.69;5018340;28;20017;-59
2022/04/26 07:00:33;;;;;;;8.82;5.63;;;;;;;9.80;73.15;101989.50;5017699;28;20033;-58
2022/04/26 07:02:58;;;;;;;11.15;5.53;;;;;;;10.21;71.49;101994.25;5018467;28;20033;-58
2022/04/26 07:05:24;;;;;;;13.15;4.90;;;;;;;10.12;71.27;102003.13;5015396;28;20034;-59
2022/04/26 07:07:50;;;;;;;16.65;5.10;;;;;;;10.17;71.28;102000.44;5017459;28;20037;-60
2022/04/26 07:10:15;;;;;;;9.95;4.47;;;;;;;10.02;71.07;102012.06;5006265;28;20161;-63
2022/04/26 07:12:41;;;;;;;10.25;3.88;;;;;;;10.09;70.92;102009.28;5021913;28;20152;-62
2022/04/26 07:15:07;;;;;;;17.50;4.88;;;;;;;10.41;70.88;102004.47;5017373;28;20132;-60
2022/04/26 07:17:32;;;;;;;10.77;4.07;;;;;;;10.56;69.57;102010.44;5006682;28;20029;-61
2022/04/26 07:19:58;;;;;;;13.95;4.10;;;;;;;10.67;68.97;102015.56;5021541;28;20037;-60
2022/04/26 07:25:59;;;;;;;13.82;4.68;;;;;;;10.50;69.49;102014.03;4187812;28;20058;-64
2022/04/26 07:28:25;;;;;;;8.68;3.72;;;;;;;10.74;68.71;102019.84;4988177;28;20038;-62
2022/04/26 07:30:50;;;;;;;13.30;4.30;;;;;;;10.64;68.82;102005.06;4988512;28;20034;-63
2022/04/26 07:35:59;;;;;;;13.98;5.28;;;;;;;10.53;68.22;102016.63;5006981;28;20081;-62
2022/04/26 07:38:25;;;;;;;12.50;4.30;;;;;;;10.47;67.81;102017.59;5008142;28;20384;-62
2022/04/26 07:40:50;;;;;;;14.75;4.43;;;;;;;10.83;67.55;102027.63;5005643;28;20488;-62
2022/04/26 07:43:16;;;;;;;11.02;4.00;;;;;;;10.87;67.17;102015.25;5007860;28;20022;-61
2022/04/26 07:45:42;;;;;;;12.98;4.65;;;;;;;10.71;66.78;102006.72;5005986;28;20033;-61
2022/04/26 07:48:08;;;;;;;8.15;3.88;;;;;;;11.17;65.86;102025.31;5006300;28;20030;-61
2022/04/26 07:50:35;;;;;;;11.98;4.55;;;;;;;11.15;64.50;102022.72;5007419;28;20472;-61
2022/04/26 07:53:02;;;;;;;10.48;3.80;;;;;;;10.77;64.29;102024.22;5006762;28;20029;-60
2022/04/26 07:55:27;;;;;;;10.55;3.78;;;;;;;10.72;64.55;102019.00;5007222;28;20365;-61
2022/04/26 07:57:53;;;;;;;11.10;4.05;;;;;;;11.02;64.40;102024.69;5005687;28;20036;-61
2022/04/26 08:00:19;;;;;;;8.00;3.50;;;;;;;10.76;64.98;102039.16;4987460;28;20112;-61
2022/04/26 08:02:44;;;;;;;8.63;4.47;;;;;;;10.83;64.26;102037.28;5005417;28;20053;-62
2022/04/26 08:05:09;;;;;;;18.40;4.72;;;;;;;10.66;65.46;102032.28;5005340;28;20069;-59
2022/04/26 08:07:39;;;;;;;13.85;4.28;;;;;;;10.69;65.24;102034.88;5006461;28;20025;-60
2022/04/26 08:10:07;;;;;;;16.88;5.20;;;;;;;10.78;65.57;102042.66;5005746;28;20053;-60
2022/04/26 08:12:32;;;;;;;10.30;3.95;;;;;;;10.65;65.98;102047.22;4972574;28;20033;-60
2022/04/26 08:14:58;;;;;;;8.30;4.00;;;;;;;10.65;65.13;102041.94;5006139;28;20056;-60
2022/04/26 08:17:23;;;;;;;14.98;3.70;;;;;;;10.54;66.28;102034.19;5006483;28;20428;-61
2022/04/26 08:19:48;;;;;;;12.90;4.07;;;;;;;10.87;64.73;102045.13;5005825;28;20542;-62
2022/04/26 08:22:14;;;;;;;14.20;4.18;;;;;;;11.01;64.45;102038.75;5007116;28;20032;-61
2022/04/26 08:27:24;;;;;;;11.52;3.85;;;;;;;11.23;63.05;102046.31;5006208;28;20041;-59
2022/04/26 08:29:50;;;;;;;6.63;3.60;;;;;;;11.32;63.46;102042.66;5004734;28;20028;-60
2022/04/26 08:32:16;;;;;;;12.50;3.80;;;;;;;11.17;62.08;102043.78;5005796;28;20026;-61
2022/04/26 08:34:41;;;;;;;9.48;4.25;;;;;;;11.27;62.73;102050.66;5005432;28;20022;-60
2022/04/26 08:37:07;;;;;;;6.65;3.28;;;;;;;11.25;61.42;102044.50;5005177;28;20022;-60
2022/04/26 08:39:32;;;;;;;5.57;3.55;;;;;;;11.27;60.60;102050.66;5003884;28;20161;-63
2022/04/26 08:41:59;;;;;;;8.20;3.47;;;;;;;11.38;61.13;102046.03;5005284;28;20034;-60
2022/04/26 08:44:28;;;;;;;11.40;3.47;;;;;;;11.74;60.20;102058.56;5005905;28;20026;-61
2022/04/26 08:52:23;;;;;;;6.45;3.00;;;;;;;11.40;58.65;102066.25;5006323;28;20572;-62
2022/04/26 08:54:49;;;;;;;6.88;2.75;;;;;;;11.43;57.34;102059.16;4987304;28;20044;-61
2022/04/26 08:57:15;;;;;;;8.00;3.00;;;;;;;11.65;57.53;102060.53;5005324;28;20499;-64
2022/04/26 08:59:50;;;;;;;5.80;3.10;;;;;;;11.76;57.23;102063.84;5004461;28;20033;-66
2022/04/26 09:02:20;;;;;;;5.28;2.92;;;;;;;11.67;56.56;102069.28;5006392;28;20075;-70
2022/04/26 09:04:48;;;;;;;5.32;2.65;;;;;;;11.78;54.38;102072.59;5006552;28;20398;-64
2022/04/26 09:07:28;;;;;;;6.28;3.13;;;;;;;11.82;56.17;102076.91;5005607;28;20104;-61
2022/04/26 09:10:14;;;;;;;4.22;2.65;;;;;;;12.02;54.87;102083.59;5005713;28;20661;-63
2022/04/26 09:13:10;;;;;;;4.07;2.40;;;;;;;12.05;53.15;102075.59;5006161;28;20026;-63
2022/04/26 09:15:44;;;;;;;8.98;2.80;;;;;;;11.95;53.17;102087.25;5007928;28;20030;-63
2022/04/26 09:18:15;;;;;;;5.97;2.42;;;;;;;12.11;53.40;102091.38;4990196;28;20034;-62
2022/04/26 09:20:41;;;;;;;6.70;3.00;;;;;;;12.21;52.83;102091.16;5006951;28;20468;-62
2022/04/26 09:23:16;;;;;;;10.13;3.20;;;;;;;12.04;54.64;102088.84;5006926;28;20033;-63
2022/04/26 09:25:42;;;;;;;8.80;3.50;;;;;;;12.22;53.81;102093.78;4998680;28;20046;-61
2022/04/26 09:28:08;;;;;;;4.40;2.95;;;;;;;12.32;55.03;102091.81;5001247;28;20026;-64
2022/04/26 09:30:33;;;;;;;5.55;2.70;;;;;;;12.41;52.96;102093.41;5007323;28;20030;-62
2022/04/26 09:32:59;;;;;;;7.20;2.50;;;;;;;12.93;50.74;102092.22;5004124;28;20037;-62
2022/04/26 09:35:31;;;;;;;6.13;2.90;;;;;;;13.31;50.85;102103.69;5006949;28;20025;-64
2022/04/26 09:37:57;;;;;;;6.68;2.88;;;;;;;13.72;50.20;102105.28;5004509;28;20040;-62
2022/04/26 09:40:30;;;;;;;7.22;3.20;;;;;;;13.29;50.84;102107.25;5005171;28;20104;-60
2022/04/26 09:42:55;;;;;;;10.90;3.10;;;;;;;13.04;51.12;102113.16;5005188;28;20037;-61
2022/04/26 09:45:21;;;;;;;10.82;3.72;;;;;;;13.04;50.96;102114.03;4988421;28;20018;-61
2022/04/26 09:47:46;;;;;;;8.23;3.75;;;;;;;12.65;51.58;102112.28;4988643;28;20036;-63
2022/04/26 09:50:14;;;;;;;7.28;3.33;;;;;;;12.62;52.29;102117.63;5004423;28;20034;-60
2022/04/26 09:52:40;;;;;;;10.57;3.28;;;;;;;12.72;50.97;102118.28;5004983;28;20014;-61
2022/04/26 09:55:07;;;;;;;4.60;2.58;;;;;;;12.71;51.24;102122.72;5005006;28;20391;-62
2022/04/26 09:57:33;;;;;;;7.85;3.08;;;;;;;12.73;50.75;102114.72;5005211;28;20045;-61
2022/04/26 10:00:00;;;;;;;6.85;2.65;;;;;;;12.56;49.52;102118.63;5005489;28;20026;-61
2022/04/26 10:02:33;;;;;;;3.88;2.40;;;;;;;12.78;49.29;102118.16;5005019;28;20042;-60
2022/04/26 10:05:05;;;;;;;10.95;3.22;;;;;;;12.96;50.47;102119.50;5005565;28;20018;-60
2022/04/26 10:07:36;;;;;;;9.32;3.45;;;;;;;12.99;52.64;102116.78;4989747;28;20041;-61
2022/04/26 10:10:06;;;;;;;6.90;3.35;;;;;;;13.28;51.47;102122.28;5007713;28;20046;-61
2022/04/26 10:12:32;;;;;;;5.97;3.03;;;;;;;13.94;48.92;102115.31;5003451;28;20018;-60
2022/04/26 10:14:59;;;;;;;7.63;3.63;;;;;;;14.18;48.99;102115.53;5009014;28;20053;-61
2022/04/26 10:17:24;;;;;;;4.97;2.78;;;;;;;13.99;45.70;102124.00;4989381;28;20476;-61
2022/04/26 10:19:50;;;;;;;5.97;2.83;;;;;;;13.95;46.58;102119.69;5006872;28;20026;-62
2022/04/26 10:22:17;;;;;;;5.97;3.15;;;;;;;13.90;47.74;102131.28;5008841;28;20056;-60
2022/04/26 10:25:12;;;;;;;3.28;2.25;;;;;;;13.83;44.44;102128.84;4989953;28;20057;-61
2022/04/26 10:27:37;;;;;;;4.47;2.70;;;;;;;13.86;43.94;102131.41;5005801;28;20115;-62
2022/04/26 10:30:03;;;;;;;3.17;2.17;;;;;;;13.64;45.73;102132.84;5008672;28;20018;-60
2022/04/26 10:32:34;;;;;;;6.35;2.60;;;;;;;13.72;47.26;102129.13;5008163;28;20014;-59
2022/04/26 10:35:25;;;;;;;8.70;2.47;;;;;;;13.84;45.44;102126.16;5008635;28;20045;-61
2022/04/26 10:38:12;;;;;;;3.95;2.40;;;;;;;14.44;44.81;102122.72;5007813;28;20025;-54
2022/04/26 10:41:06;;;;;;;5.20;2.20;;;;;;;14.97;45.53;102117.63;5005205;28;20121;-61
2022/04/26 10:43:31;;;;;;;9.35;2.70;;;;;;;15.14;42.96;102123.25;5008056;28;20187;-61
2022/04/26 10:46:13;;;;;;;4.95;2.67;;;;;;;14.86;43.46;102118.84;5008600;28;20061;-63
2022/04/26 10:48:38;;;;;;;6.35;2.58;;;;;;;14.71;42.91;102121.91;5005653;28;20389;-61
2022/04/26 10:51:32;;;;;;;6.85;2.30;;;;;;;14.10;42.19;102126.34;5007507;28;20030;-59
2022/04/26 10:53:57;;;;;;;2.40;2.20;;;;;;;14.03;43.67;102121.22;5007347;28;20038;-61
2022/04/26 10:56:22;;;;;;;3.33;1.95;;;;;;;13.56;44.40;102124.25;5006625;28;20121;-59
2022/04/26 10:58:54;;;;;;;4.25;2.30;;;;;;;13.93;46.11;102126.84;5008335;28;20022;-60
2022/04/26 11:01:23;;;;;;;3.03;2.30;;;;;;;14.25;44.46;102125.03;5007348;28;20065;-61
2022/04/26 11:03:53;;;;;;;3.25;1.92;;;;;;;14.00;39.31;102125.75;5008853;28;20034;-60
2022/04/26 11:06:36;;;;;;;4.93;1.77;;;;;;;14.61;41.12;102124.88;4989710;28;20038;-60
2022/04/26 11:09:11;;;;;;;2.83;2.03;;;;;;;14.88;39.58;102132.06;5007744;28;20037;-60
2022/04/26 11:11:49;;;;;;;7.05;2.30;;;;;;;15.08;38.80;102125.25;5006625;28;20380;-61
2022/04/26 11:14:17;;;;;;;7.27;2.40;;;;;;;15.27;39.71;102117.53;5008518;28;20022;-61
2022/04/26 11:17:02;;;;;;;6.07;2.17;;;;;;;15.38;35.55;102120.69;5006267;28;20030;-61
2022/04/26 11:19:28;;;;;;;2.88;1.73;;;;;;;15.60;35.34;102138.56;5007976;28;20554;-61
2022/04/26 11:21:55;;;;;;;4.18;2.28;;;;;;;15.40;36.63;102125.94;5006390;28;20040;-62
2022/04/26 11:29:52;;;;;;;6.30;2.20;;;;;;;14.89;38.74;102134.66;4993304;28;20165;-61
2022/04/26 11:32:31;;;;;;;7.55;3.10;;;;;;;14.65;41.54;102142.44;5006926;28;20046;-60
2022/04/26 11:34:57;;;;;;;;;;;;;;;15.39;40.82;102140.16;5008161;28;20030;-60
2022/04/26 11:37:22;;;;;;;5.70;2.00;;;;;;;15.72;39.85;102141.72;5004366;28;19917;-59
2022/04/26 11:39:48;;;;;;;9.50;3.13;;;;;;;16.38;43.18;102146.44;5007253;28;21234;-61
2022/04/26 11:42:13;;;;;;;5.95;3.10;;;;;;;15.65;44.50;102147.22;4989363;28;20057;-61
2022/04/26 11:44:58;;;;;;;5.90;2.65;;;;;;;15.82;46.21;102152.88;5006628;28;20032;-60
2022/04/26 11:47:41;;;;;;;6.47;2.60;;;;;;;15.95;46.14;102159.50;5005108;28;20034;-61
2022/04/26 11:50:08;;;;;;;5.13;2.55;;;;;;;15.61;46.47;102166.88;5007689;28;20026;-61
2022/04/26 11:52:33;;;;;;;7.75;2.83;;;;;;;15.14;47.63;102172.84;5006425;28;20062;-62
2022/04/26 11:54:59;;;;;;;5.15;2.53;;;;;;;15.26;45.92;102174.22;5005867;28;20070;-61
2022/04/26 11:57:24;;;;;;;5.80;2.15;;;;;;;15.11;46.08;102168.47;5006628;28;20034;-61
2022/04/26 11:59:50;;;;;;;7.60;2.50;;;;;;;15.24;46.45;102168.97;4972805;28;20066;-62
2022/04/26 12:02:15;;;;;;;9.80;2.60;;;;;;;15.39;45.77;102178.19;5006895;28;20068;-60
2022/04/26 12:04:41;;;;;;;8.98;2.40;;;;;;;14.78;47.49;102174.78;5005692;28;20048;-60
2022/04/26 12:07:07;;;;;;;6.85;2.50;;;;;;;15.15;46.43;102179.88;5006878;28;20042;-65
2022/04/26 12:09:33;;;;;;;6.78;2.67;;;;;;;15.01;46.33;102181.19;5005396;28;20156;-62
2022/04/26 12:12:02;;;;;;;6.88;3.10;;;;;;;14.86;46.32;102179.88;5006799;28;20034;-61
2022/04/26 12:14:27;;;;;;;5.68;2.42;;;;;;;15.72;43.72;102168.28;5004189;28;20692;-62
2022/04/26 12:16:56;;;;;;;6.60;2.47;;;;;;;16.50;42.62;102171.72;5006341;28;20033;-63
2022/04/26 12:19:35;;;;;;;4.70;2.33;;;;;;;17.26;40.30;102167.94;5005371;28;20030;-68
2022/04/26 12:22:00;;;;;;;4.03;2.53;;;;;;;17.90;38.37;102177.69;5005539;28;20114;-62
2022/04/26 12:24:31;;;;;;;4.38;1.80;;;;;;;17.48;38.54;102184.78;5004504;28;20127;-60
2022/04/26 12:27:04;;;;;;;5.78;2.35;;;;;;;16.84;40.55;102179.31;5006720;28;20619;-60
2022/04/26 12:29:30;;;;;;;6.07;2.30;;;;;;;16.32;41.06;102167.09;5004477;28;20038;-62
2022/04/26 12:31:56;;;;;;;7.25;2.38;;;;;;;15.88;42.83;102180.13;5005528;28;20393;-64
2022/04/26 12:34:24;;;;;;;5.13;2.10;;;;;;;16.27;42.09;102175.25;5005197;28;20397;-61
2022/04/26 12:36:56;;;;;;;6.07;2.25;;;;;;;16.11;41.67;102180.25;5006595;28;20033;-64
2022/04/26 12:39:23;;;;;;;4.93;2.28;;;;;;;16.45;41.21;102183.47;5004634;28;20022;-60
2022/04/26 12:41:51;;;;;;;3.70;1.90;;;;;;;16.25;40.68;102193.03;4989203;28;20033;-62
2022/04/26 12:44:17;;;;;;;3.45;1.92;;;;;;;16.08;41.27;102186.56;5006251;28;20092;-62
2022/04/26 12:50:28;;;;;;;4.07;2.10;;;;;;;16.47;41.72;102185.16;5005781;28;20018;-60
2022/04/26 12:52:47;;;;;;;5.80;2.30;;;;;;;17.90;39.12;102189.25;5006541;28;20076;-61
2022/04/26 12:55:35;;;;;;;4.97;2.17;;;;;;;18.23;39.50;102181.63;5004762;28;20080;-64
2022/04/26 12:58:03;;;;;;;4.78;1.88;;;;;;;19.33;35.05;102189.00;4997707;28;20037;-65
2022/04/26 13:00:29;;;;;;;7.35;2.22;;;;;;;19.58;34.19;102185.06;5004997;28;20025;-66
2022/04/26 13:03:03;;;;;;;3.72;1.75;;;;;;;19.98;33.97;102174.09;5005937;28;20104;-66
2022/04/26 13:05:45;;;;;;;4.72;2.10;;;;;;;19.99;34.98;102180.34;5004724;28;20420;-64
2022/04/26 13:08:12;;;;;;;4.35;2.22;;;;;;;19.97;35.46;102191.13;5005949;28;20092;-65
2022/04/26 13:10:40;;;;;;;3.38;2.25;;;;;;;20.17;34.22;102190.06;5004521;28;20137;-74
2022/04/26 13:13:06;;;;;;;5.93;2.08;;;;;;;20.33;32.95;102195.50;5005784;28;20435;-68
2022/04/26 13:15:31;;;;;;;2.53;1.42;;;;;;;21.09;32.88;102184.22;5004635;28;20034;-73
2022/04/26 13:17:57;;;;;;;4.63;1.88;;;;;;;21.41;31.22;102197.59;5006269;28;20056;-65
2022/04/26 13:20:22;;;;;;;4.72;1.63;;;;;;;21.43;30.52;102194.81;5004555;28;20033;-65
2022/04/26 13:22:48;;;;;;;4.32;1.80;;;;;;;21.20;31.00;102200.53;5004685;28;20551;-71
2022/04/26 13:25:13;;;;;;;6.55;1.55;;;;;;;21.32;31.26;102198.13;5001924;28;20666;-63
2022/04/26 13:27:38;;;;;;;4.65;1.50;;;;;;;21.16;31.30;102196.31;5002868;28;20032;-65
2022/04/26 13:30:06;;;;;;;3.88;1.70;;;;;;;21.66;30.39;102212.22;5005414;28;20036;-63
2022/04/26 13:32:32;;;;;;;6.38;1.75;;;;;;;21.30;32.17;102206.25;5005307;28;20037;-72
2022/04/26 13:34:58;;;;;;;3.30;1.77;;;;;;;21.18;32.21;102197.09;5005076;28;20029;-61
2022/04/26 13:37:24;;;;;;;2.08;1.80;;;;;;;21.54;30.24;102197.72;5005308;28;20030;-64
2022/04/26 13:39:50;;;;;;;4.72;1.67;;;;;;;21.49;31.25;102197.09;4987264;28;20106;-67
2022/04/26 13:42:16;;;;;;;5.88;2.20;;;;;;;21.08;31.05;102193.22;5006551;28;20034;-70
2022/04/26 13:44:41;;;;;;;6.15;1.80;;;;;;;21.35;31.05;102192.56;5008241;28;20076;-70
2022/04/26 13:47:08;;;;;;;7.68;2.08;;;;;;;21.48;29.84;102197.19;5008327;28;20034;-61
2022/04/26 13:49:36;;;;;;;4.38;2.30;;;;;;;21.10;30.25;102191.31;5007839;28;20057;-61
2022/04/26 13:52:06;;;;;;;5.05;2.00;;;;;;;21.83;29.19;102207.69;5009043;28;20041;-61
2022/04/26 13:54:32;;;;;;;5.57;1.90;;;;;;;21.68;30.10;102188.84;5008030;28;20092;-61
2022/04/26 13:56:58;;;;;;;5.57;1.80;;;;;;;21.93;28.99;102189.19;5008616;28;20028;-63
2022/04/26 13:59:24;;;;;;;3.47;1.73;;;;;;;21.59;29.28;102184.03;5008459;28;20383;-64
2022/04/26 14:01:50;;;;;;;5.50;2.05;;;;;;;21.29;30.79;102182.22;4991881;28;20014;-63
2022/04/26 14:04:16;;;;;;;4.93;1.77;;;;;;;21.77;29.11;102194.63;5008651;28;20063;-63
2022/04/26 14:06:41;;;;;;;4.40;1.70;;;;;;;21.53;29.63;102200.47;5007648;28;20375;-63
2022/04/26 14:09:07;;;;;;;5.55;1.98;;;;;;;21.73;28.97;102188.56;5006745;28;20176;-64
2022/04/26 14:11:32;;;;;;;4.15;1.83;;;;;;;21.68;28.16;102194.22;5007929;28;20129;-62
2022/04/26 14:22:10;;;;;;;2.60;1.83;;;;;;;22.05;28.95;102199.19;5007616;28;20661;-63
2022/04/26 14:24:35;;;;;;;4.68;1.80;;;;;;;22.38;28.94;102190.94;5004529;28;20034;-62
2022/04/26 14:27:01;;;;;;;2.95;1.80;;;;;;;22.07;30.09;102202.63;5007645;28;20483;-64
2022/04/26 14:29:27;;;;;;;5.20;1.90;;;;;;;21.73;29.50;102196.59;5006778;28;20456;-62
2022/04/26 14:31:52;;;;;;;10.05;1.90;;;;;;;21.76;29.53;102203.66;5008206;28;20431;-60
2022/04/26 14:34:18;;;;;;;4.13;1.88;;;;;;;21.96;28.97;102205.97;5007950;28;20492;-62
2022/04/26 14:36:43;;;;;;;3.78;1.80;;;;;;;21.46;28.83;102208.00;5008294;28;20504;-61
2022/04/26 14:39:08;;;;;;;3.00;1.65;;;;;;;21.66;28.00;102206.84;5006340;28;22308;-66
2022/04/26 14:41:34;;;;;;;8.95;1.70;;;;;;;20.84;30.93;102199.00;5007742;28;20392;-64
2022/04/26 14:43:59;;;;;;;2.97;1.80;;;;;;;21.64;29.13;102198.00;5007580;28;20380;-70
2022/04/26 14:46:25;;;;;;;3.45;1.77;;;;;;;22.18;27.98;102195.72;5008059;28;20580;-68
2022/04/26 14:48:50;;;;;;;3.47;1.83;;;;;;;21.96;29.71;102208.66;5007662;28;20034;-66
2022/04/26 14:51:16;;;;;;;2.58;1.65;;;;;;;21.95;29.89;102220.34;5008660;28;20025;-68
2022/04/26 14:53:41;;;;;;;2.85;1.83;;;;;;;21.51;29.62;102202.38;5004242;28;20048;-66
2022/04/26 14:56:09;;;;;;;5.25;1.98;;;;;;;21.45;30.09;102220.56;4990460;28;20030;-59
2022/04/26 14:58:35;;;;;;;3.30;1.70;;;;;;;21.95;29.01;102224.84;5006336;28;20061;-60
2022/04/26 15:01:00;;;;;;;4.55;1.80;;;;;;;21.81;28.61;102217.63;5006438;28;20317;-60
2022/04/26 15:03:27;;;;;;;2.90;1.55;;;;;;;21.88;28.41;102221.66;5006589;28;20030;-57
2022/04/26 15:05:52;;;;;;;4.97;1.65;;;;;;;21.65;28.42;102207.81;5007466;28;20034;-60
2022/04/26 15:11:02;;;;;;;7.35;1.75;;;;;;;21.54;30.20;102199.53;5006789;28;20095;-59
2022/04/26 15:18:55;;;;;;;5.20;1.75;;;;;;;21.80;30.23;102207.88;5006187;28;20160;-60
2022/04/26 15:21:20;;;;;;;5.85;2.22;;;;;;;21.79;30.48;102211.50;5007255;28;20105;-61
2022/04/26 15:23:45;;;;;;;8.23;2.13;;;;;;;22.63;28.22;102210.91;5005477;28;20025;-69
2022/04/26 15:26:12;;;;;;;6.60;2.03;;;;;;;22.81;28.09;102209.72;5007865;28;20045;-68
2022/04/26 15:28:41;;;;;;;7.82;2.10;;;;;;;22.40;29.16;102211.38;5006065;28;20065;-61
2022/04/26 15:31:07;;;;;;;3.33;2.05;;;;;;;22.50;28.80;102211.66;5005540;28;20041;-59
2022/04/26 15:33:32;;;;;;;3.38;1.90;;;;;;;22.78;27.88;102209.91;5004969;28;20358;-56
2022/04/26 15:35:58;;;;;;;1.88;1.58;;;;;;;22.68;27.64;102214.16;5006651;28;20499;-59
2022/04/26 15:38:27;;;;;;;4.15;1.70;;;;;;;22.45;27.37;102214.63;5006004;28;20040;-59
2022/04/26 15:40:53;;;;;;;2.83;2.05;;;;;;;22.63;27.48;102222.50;5006438;28;20037;-59
2022/04/26 15:43:18;;;;;;;5.47;2.00;;;;;;;21.34;29.71;102223.00;5007166;28;20041;-60